Lobo

Go HERE for most recent data if this page is not up to date.

Jump to table bottom
Date/Time Temp deg F RH % 24 Hr Snow (in) Snow Depth (in) H2O (in)
11/29 13:00 38.0 40 -0.2 11.1 0.00
11/29 12:00 39.1 41 -0.2 11.1 0.00
11/29 11:00 38.4 38 -0.2 10.9 0.00
11/29 10:00 36.5 45 -0.1 11.2 0.00
11/29 09:00 34.6 51 -0.2 11.1 0.00
11/29 08:00 33.6 51 -0.0 11.4 0.00
11/29 07:00 33.9 54 -0.0 11.5 0.00
11/29 06:00 34.3 45 -0.0 11.3 0.00
11/29 05:00 34.4 50 -0.0 11.4 0.00
11/29 04:00 35.2 53 -0.0 11.4 0.00
11/29 03:00 35.8 50 -0.1 11.3 0.00
11/29 02:00 36.3 47 -0.0 11.4 0.00
11/29 01:00 36.5 47 -0.1 11.3 0.00
11/29 00:00 36.7 47 -0.1 11.2 0.00
11/28 23:00 37.3 46 -0.1 11.2 0.00
11/28 22:00 38.0 45 -0.2 11.2 0.00
11/28 21:00 38.3 45 -0.1 11.3 0.00
11/28 20:00 38.6 48 -0.2 11.2 0.00
11/28 19:00 38.9 45 -0.2 11.2 0.00
11/28 18:00 38.8 49 -0.2 11.2 0.00
11/28 17:00 38.8 50 -0.2 11.3 0.00
11/28 16:00 40.8 53 -0.2 11.1 0.00
11/28 15:00 42.0 47 -0.3 11.1 0.00
11/28 14:00 42.8 44 -0.3 11.0 0.00
11/28 13:00 42.6 46 -0.3 11.3 0.00
11/28 12:00 41.3 46 -0.3 11.5 0.00
11/28 11:00 39.0 51 -0.2 11.6 0.00
11/28 10:00 37.4 66 -0.1 11.9 0.00
11/28 09:00 36.5 72 -0.1 12.0 0.00
11/28 08:00 35.8 74 -0.0 12.2 0.00
11/28 07:00 34.5 80 -0.0 12.3 0.00
11/28 06:00 33.3 83 -0.0 12.4 0.00
11/28 05:00 33.0 84 0.0 12.5 0.00
11/28 04:00 33.7 85 -0.0 12.4 0.00
11/28 03:00 33.9 68 -0.0 12.3 0.00
11/28 02:00 33.2 66 -0.0 12.5 0.00
11/28 01:00 33.8 58 -0.0 12.4 0.00
11/28 00:00 33.5 51 -0.0 12.6 0.00
.